createdAt,value
2017-08-10T00:01:29.600Z,91.05
2017-08-10T00:03:55.508Z,91.19
2017-08-10T00:06:21.248Z,92.43
2017-08-10T00:08:47.011Z,92.55
2017-08-10T00:11:12.874Z,93.41
2017-08-10T00:13:38.643Z,92.27
2017-08-10T00:16:04.468Z,90.72
2017-08-10T00:18:30.303Z,90.87
2017-08-10T00:20:56.227Z,90.97
2017-08-10T00:23:21.969Z,90.99
2017-08-10T00:25:47.751Z,90.90
2017-08-10T00:28:13.615Z,91.24
2017-08-10T00:30:39.388Z,91.68
2017-08-10T00:33:05.303Z,91.20
2017-08-10T00:35:31.083Z,91.70
2017-08-10T00:37:56.899Z,91.30
2017-08-10T00:40:22.667Z,90.79
2017-08-10T00:42:48.509Z,90.77
2017-08-10T00:45:14.310Z,90.75
2017-08-10T00:47:40.114Z,91.60
2017-08-10T00:50:06.044Z,91.47
2017-08-10T00:52:31.814Z,91.03
2017-08-10T00:54:57.562Z,90.74
2017-08-10T00:57:23.420Z,90.73
2017-08-10T00:59:49.216Z,91.01
2017-08-10T01:02:15.042Z,91.02
2017-08-10T01:04:40.894Z,91.01
2017-08-10T01:07:06.662Z,90.01
2017-08-10T01:09:32.482Z,90.50
2017-08-10T01:11:58.265Z,90.91
2017-08-10T01:14:24.112Z,90.80
2017-08-10T01:16:49.929Z,91.82
2017-08-10T01:19:15.807Z,92.43
2017-08-10T01:21:41.651Z,93.02
2017-08-10T01:24:07.447Z,92.88
2017-08-10T01:26:33.271Z,93.38
2017-08-10T01:28:59.036Z,92.17
2017-08-10T01:31:24.887Z,91.91
2017-08-10T01:33:50.663Z,93.25
2017-08-10T01:36:16.487Z,93.08
2017-08-10T01:38:42.343Z,92.00
2017-08-10T01:41:08.119Z,92.41
2017-08-10T01:43:33.951Z,92.67
2017-08-10T01:45:59.791Z,93.39
2017-08-10T01:48:25.722Z,93.01
2017-08-10T01:50:51.471Z,92.40
2017-08-10T01:53:17.261Z,92.11
2017-08-10T01:55:43.035Z,92.02
2017-08-10T01:58:08.854Z,91.68
2017-08-10T02:00:34.825Z,91.92
2017-08-10T02:03:00.567Z,92.21
2017-08-10T02:05:26.336Z,93.04
2017-08-10T02:07:52.175Z,92.33
2017-08-10T02:10:17.948Z,91.95
2017-08-10T02:12:43.759Z,91.18
2017-08-10T02:15:09.598Z,90.67
2017-08-10T02:17:35.450Z,91.53
2017-08-10T02:20:01.241Z,92.42
2017-08-10T02:22:27.038Z,92.47
2017-08-10T02:24:52.838Z,92.60
2017-08-10T02:27:18.708Z,92.95
2017-08-10T02:29:44.546Z,93.13
2017-08-10T02:32:10.349Z,92.77
2017-08-10T02:34:36.234Z,93.17
2017-08-10T02:37:02.020Z,93.23
2017-08-10T02:39:27.822Z,93.31
2017-08-10T02:41:53.589Z,93.53
2017-08-10T02:44:19.503Z,93.12
2017-08-10T02:46:45.246Z,93.45
2017-08-10T02:49:11.035Z,93.52
2017-08-10T02:51:36.985Z,94.13
2017-08-10T02:54:02.730Z,94.22
2017-08-10T02:56:28.486Z,93.92
2017-08-10T02:58:54.335Z,93.96
2017-08-10T03:01:20.126Z,93.92
2017-08-10T03:03:45.974Z,93.60
2017-08-10T03:06:11.779Z,93.93
2017-08-10T03:08:41.116Z,93.67
2017-08-10T03:11:08.733Z,93.88
2017-08-10T03:13:34.548Z,93.98
2017-08-10T03:16:00.382Z,93.85
2017-08-10T03:18:26.195Z,93.92
2017-08-10T03:20:53.129Z,94.34
2017-08-10T03:23:18.887Z,94.29
2017-08-10T03:25:44.662Z,94.22
2017-08-10T03:28:10.562Z,94.19
2017-08-10T03:30:36.304Z,93.94
2017-08-10T03:33:02.144Z,93.39
2017-08-10T03:35:27.997Z,93.28
2017-08-10T03:37:53.790Z,94.11
2017-08-10T03:40:19.598Z,94.50
2017-08-10T03:42:45.437Z,94.01
2017-08-10T03:45:11.223Z,94.40
2017-08-10T03:47:37.087Z,94.43
2017-08-10T03:50:02.918Z,93.99
2017-08-10T03:52:28.663Z,95.38
2017-08-10T03:54:54.491Z,95.03
2017-08-10T03:57:20.412Z,93.40
2017-08-10T03:59:46.171Z,93.54
2017-08-10T04:02:11.983Z,93.02
2017-08-10T04:04:37.763Z,91.59
2017-08-10T04:07:03.624Z,91.48
2017-08-10T04:09:29.440Z,92.01
2017-08-10T04:11:55.218Z,92.79
2017-08-10T04:14:21.038Z,92.95
2017-08-10T04:16:47.284Z,93.32
2017-08-10T04:19:13.172Z,92.88
2017-08-10T04:21:38.922Z,92.60
2017-08-10T04:24:04.827Z,92.38
2017-08-10T04:26:30.565Z,93.45
2017-08-10T04:28:56.458Z,92.98
2017-08-10T04:31:22.187Z,92.18
2017-08-10T04:33:47.992Z,93.10
2017-08-10T04:36:13.784Z,92.68
2017-08-10T04:38:39.629Z,92.37
2017-08-10T04:41:05.496Z,91.37
2017-08-10T04:43:31.277Z,90.66
2017-08-10T04:45:57.067Z,90.85
2017-08-10T04:48:22.886Z,90.69
2017-08-10T04:50:48.769Z,92.04
2017-08-10T04:53:14.541Z,92.66
2017-08-10T04:55:40.329Z,92.34
2017-08-10T04:58:07.250Z,92.70
2017-08-10T05:00:33.082Z,92.32
2017-08-10T05:02:58.852Z,92.64
2017-08-10T05:05:24.624Z,92.37
2017-08-10T05:07:50.453Z,92.83
2017-08-10T05:10:16.304Z,92.58
2017-08-10T05:12:42.087Z,92.28
2017-08-10T05:15:07.972Z,92.47
2017-08-10T05:17:33.792Z,92.39
2017-08-10T05:19:59.600Z,92.17
2017-08-10T05:22:25.330Z,91.92
2017-08-10T05:24:51.280Z,92.23
2017-08-10T05:27:17.015Z,91.53
2017-08-10T05:29:42.816Z,92.82
2017-08-10T05:32:08.733Z,91.64
2017-08-10T05:34:34.455Z,90.65
2017-08-10T05:37:00.306Z,91.45
2017-08-10T05:39:26.116Z,91.18
2017-08-10T05:41:51.940Z,90.94
2017-08-10T05:44:17.806Z,91.67
2017-08-10T05:46:43.553Z,91.61
2017-08-10T05:49:09.392Z,91.61
2017-08-10T05:51:35.209Z,91.35
2017-08-10T05:54:01.073Z,91.69
2017-08-10T05:56:26.844Z,92.19
2017-08-10T05:58:52.642Z,90.98
2017-08-10T06:01:18.457Z,91.40
2017-08-10T06:03:44.304Z,91.56
2017-08-10T06:06:10.137Z,91.92
2017-08-10T06:08:35.909Z,91.66
2017-08-10T06:11:01.788Z,91.51
2017-08-10T06:13:27.572Z,91.50
2017-08-10T06:15:53.429Z,92.02
2017-08-10T06:18:19.193Z,89.83
2017-08-10T06:20:44.997Z,91.25
2017-08-10T06:23:10.863Z,91.88
2017-08-10T06:25:36.642Z,92.17
2017-08-10T06:28:02.598Z,92.54
2017-08-10T06:30:28.360Z,93.16
2017-08-10T06:32:54.120Z,92.99
2017-08-10T06:35:20.006Z,93.00
2017-08-10T06:37:45.898Z,93.01
2017-08-10T06:40:11.832Z,92.95
2017-08-10T06:42:37.685Z,92.70
2017-08-10T06:45:03.477Z,93.31
2017-08-10T06:47:29.302Z,92.17
2017-08-10T06:49:55.124Z,92.46
2017-08-10T06:52:20.852Z,93.03
2017-08-10T06:54:46.740Z,93.30
2017-08-10T06:57:12.526Z,92.66
2017-08-10T06:59:38.249Z,92.23
2017-08-10T07:02:03.992Z,91.40
2017-08-10T07:04:29.764Z,91.84
2017-08-10T07:06:55.558Z,92.82
2017-08-10T07:09:21.409Z,92.87
2017-08-10T07:11:47.200Z,93.11
2017-08-10T07:14:13.040Z,92.50
2017-08-10T07:16:38.829Z,91.36
2017-08-10T07:19:04.747Z,91.38
2017-08-10T07:21:30.512Z,91.27
2017-08-10T07:23:56.361Z,91.36
2017-08-10T07:26:22.134Z,92.64
2017-08-10T07:28:47.972Z,92.51
2017-08-10T07:31:13.756Z,93.11
2017-08-10T07:33:39.641Z,93.73
2017-08-10T07:36:05.413Z,92.95
2017-08-10T07:38:31.197Z,93.13
2017-08-10T07:40:57.116Z,93.12
2017-08-10T07:43:22.850Z,92.94
2017-08-10T07:45:48.657Z,92.58
2017-08-10T07:48:14.504Z,92.70
2017-08-10T07:50:40.216Z,92.28
2017-08-10T07:53:05.964Z,92.74
2017-08-10T07:55:31.688Z,92.43
2017-08-10T07:57:57.605Z,92.71
2017-08-10T08:00:23.356Z,91.66
2017-08-10T08:02:49.180Z,92.63
2017-08-10T08:05:15.080Z,90.75
2017-08-10T08:07:40.940Z,90.66
2017-08-10T08:10:06.718Z,90.92
2017-08-10T08:12:32.469Z,92.14
2017-08-10T08:14:58.314Z,91.38
2017-08-10T08:17:24.089Z,91.77
2017-08-10T08:19:49.905Z,91.93
2017-08-10T08:22:16.193Z,91.78
2017-08-10T08:24:41.957Z,92.40
2017-08-10T08:27:07.810Z,92.67
2017-08-10T08:29:33.629Z,91.42
2017-08-10T08:31:59.413Z,91.53
2017-08-10T08:34:25.244Z,92.01
2017-08-10T08:36:51.076Z,91.47
2017-08-10T08:39:16.889Z,91.26
2017-08-10T08:41:42.685Z,90.72
2017-08-10T08:44:08.560Z,92.16
2017-08-10T08:46:34.350Z,91.75
2017-08-10T08:49:00.234Z,92.14
2017-08-10T08:51:26.083Z,91.54
2017-08-10T08:53:51.800Z,91.51
2017-08-10T08:56:17.597Z,92.03
2017-08-10T08:58:43.420Z,92.19
2017-08-10T09:01:09.257Z,92.67
2017-08-10T09:03:35.082Z,91.70
2017-08-10T09:06:00.879Z,91.75
2017-08-10T09:08:26.726Z,92.50
2017-08-10T09:10:52.598Z,92.33
2017-08-10T09:13:18.349Z,92.98
2017-08-10T09:15:44.178Z,93.32
2017-08-10T09:18:10.008Z,92.02
2017-08-10T09:20:35.789Z,92.48
2017-08-10T09:23:01.668Z,91.79
2017-08-10T09:25:27.446Z,92.05
2017-08-10T09:27:53.249Z,91.92
2017-08-10T09:30:19.112Z,91.61
2017-08-10T09:32:44.870Z,93.04
2017-08-10T09:35:10.717Z,91.86
2017-08-10T09:37:36.616Z,93.15
2017-08-10T09:40:02.331Z,92.11
2017-08-10T09:42:28.144Z,92.22
2017-08-10T09:44:54.019Z,91.49
2017-08-10T09:47:19.783Z,92.67
2017-08-10T09:49:45.790Z,92.00
2017-08-10T09:52:11.639Z,91.64
2017-08-10T09:54:37.485Z,92.00
2017-08-10T09:57:03.265Z,90.94
2017-08-10T09:59:29.109Z,92.27
2017-08-10T10:01:54.908Z,91.98
2017-08-10T10:04:20.828Z,91.26
2017-08-10T10:06:46.565Z,91.59
2017-08-10T10:09:12.385Z,91.54
2017-08-10T10:11:38.195Z,92.08
2017-08-10T10:14:04.129Z,91.30
2017-08-10T10:16:29.839Z,90.66
2017-08-10T10:18:55.629Z,91.43
2017-08-10T10:21:21.576Z,91.14
2017-08-10T10:23:47.308Z,91.47
2017-08-10T10:26:13.101Z,90.40
2017-08-10T10:28:38.929Z,91.80
2017-08-10T10:31:04.796Z,92.02
2017-08-10T10:33:30.554Z,92.04
2017-08-10T10:35:56.277Z,92.14
2017-08-10T10:38:22.028Z,92.93
2017-08-10T10:40:47.788Z,92.35
2017-08-10T10:43:13.508Z,92.45
2017-08-10T10:45:39.262Z,92.33
2017-08-10T10:48:05.065Z,92.23
2017-08-10T10:50:30.852Z,92.72
2017-08-10T10:52:56.724Z,91.62
2017-08-10T10:55:22.503Z,91.46
2017-08-10T10:57:48.323Z,92.16
2017-08-10T11:00:14.170Z,92.16
2017-08-10T11:02:40.028Z,92.54
2017-08-10T11:05:05.801Z,92.58
2017-08-10T11:07:31.616Z,91.80
2017-08-10T11:09:57.433Z,93.06
2017-08-10T11:12:23.298Z,92.64
2017-08-10T11:14:49.055Z,92.05
2017-08-10T11:17:14.884Z,92.12
2017-08-10T11:19:40.608Z,92.54
2017-08-10T11:22:06.367Z,92.76
2017-08-10T11:24:32.244Z,91.84
2017-08-10T11:26:57.972Z,92.25
2017-08-10T11:29:23.772Z,92.79
2017-08-10T11:31:49.560Z,92.23
2017-08-10T11:34:15.500Z,92.82
2017-08-10T11:36:41.212Z,92.84
2017-08-10T11:39:07.053Z,92.14
2017-08-10T11:41:32.913Z,92.90
2017-08-10T11:43:58.673Z,92.46
2017-08-10T11:46:24.480Z,92.27
2017-08-10T11:48:50.360Z,91.82
2017-08-10T11:51:16.121Z,91.64
2017-08-10T11:53:41.952Z,90.87
2017-08-10T11:56:07.781Z,90.29
2017-08-10T11:58:33.657Z,90.17
2017-08-10T12:00:59.439Z,91.33
2017-08-10T12:03:25.249Z,90.96
2017-08-10T12:05:51.053Z,90.31
2017-08-10T12:08:16.858Z,91.16
2017-08-10T12:10:42.711Z,90.50
2017-08-10T12:13:08.514Z,91.28
2017-08-10T12:15:34.229Z,91.45
2017-08-10T12:17:59.961Z,90.00
2017-08-10T12:20:25.736Z,90.96
2017-08-10T12:22:51.597Z,91.02
2017-08-10T12:25:17.424Z,91.39
2017-08-10T12:27:43.209Z,90.31
2017-08-10T12:30:09.013Z,90.86
2017-08-10T12:32:34.870Z,90.56
2017-08-10T12:35:00.720Z,89.05
2017-08-10T12:37:26.509Z,89.42
2017-08-10T12:39:52.313Z,89.68
2017-08-10T12:42:18.217Z,90.42
2017-08-10T12:44:43.941Z,90.47
2017-08-10T12:47:09.697Z,90.26
2017-08-10T12:49:35.426Z,89.71
2017-08-10T12:52:01.168Z,89.54
2017-08-10T12:54:27.095Z,90.22
2017-08-10T12:56:52.893Z,89.90
2017-08-10T12:59:18.659Z,89.46
2017-08-10T13:01:44.444Z,88.47
2017-08-10T13:04:10.294Z,89.50
2017-08-10T13:06:36.087Z,88.61
2017-08-10T13:09:02.019Z,89.28
2017-08-10T13:11:27.773Z,87.59
2017-08-10T13:13:53.565Z,87.73
2017-08-10T13:16:19.425Z,88.42
2017-08-10T13:18:45.191Z,87.54
2017-08-10T13:21:11.024Z,89.45
2017-08-10T13:23:36.925Z,86.92
2017-08-10T13:26:02.641Z,87.07
2017-08-10T13:28:28.481Z,88.70
2017-08-10T13:30:54.316Z,88.89
2017-08-10T13:33:20.095Z,87.64
2017-08-10T13:35:45.975Z,88.62
2017-08-10T13:38:11.739Z,86.76
2017-08-10T13:40:37.553Z,86.40
2017-08-10T13:43:03.402Z,87.62
2017-08-10T13:45:29.218Z,85.61
2017-08-10T13:47:55.030Z,85.89
2017-08-10T13:50:20.741Z,85.09
2017-08-10T13:52:46.524Z,85.92
2017-08-10T13:55:12.276Z,86.49
2017-08-10T13:57:38.124Z,86.48
2017-08-10T14:00:03.907Z,86.33
2017-08-10T14:02:29.784Z,83.70
2017-08-10T14:04:55.560Z,85.38
2017-08-10T14:07:21.416Z,84.91
2017-08-10T14:09:47.321Z,86.94
2017-08-10T14:12:13.030Z,84.71
2017-08-10T14:14:38.861Z,86.98
2017-08-10T14:17:04.609Z,84.03
2017-08-10T14:19:30.509Z,85.82
2017-08-10T14:21:56.509Z,86.11
2017-08-10T14:24:22.285Z,86.33
2017-08-10T14:26:48.181Z,86.61
2017-08-10T14:29:14.028Z,86.03
2017-08-10T14:31:39.745Z,86.63
2017-08-10T14:34:05.624Z,86.32
2017-08-10T14:36:31.480Z,86.02
2017-08-10T14:38:57.261Z,87.03
2017-08-10T14:41:23.086Z,86.79
2017-08-10T14:43:48.966Z,85.22
2017-08-10T14:46:14.684Z,84.74
2017-08-10T14:48:40.476Z,85.05
2017-08-10T14:51:06.333Z,84.78
2017-08-10T14:53:32.097Z,80.79
2017-08-10T14:55:57.990Z,78.76
2017-08-10T14:58:23.781Z,74.78
2017-08-10T15:00:49.643Z,68.00
2017-08-10T15:03:15.489Z,68.39
2017-08-10T15:05:41.238Z,66.09
2017-08-10T15:08:07.016Z,74.85
2017-08-10T15:10:32.951Z,76.89
2017-08-10T15:12:58.668Z,76.78
2017-08-10T15:15:24.543Z,74.60
2017-08-10T15:17:50.449Z,71.78
2017-08-10T15:20:16.181Z,70.92
2017-08-10T15:22:41.928Z,75.58
2017-08-10T15:25:07.777Z,75.10
2017-08-10T15:27:33.563Z,75.46
2017-08-10T15:29:59.383Z,72.62
2017-08-10T15:32:25.232Z,75.46
2017-08-10T15:34:51.017Z,77.38
2017-08-10T15:37:16.933Z,81.44
2017-08-10T15:39:42.663Z,79.76
2017-08-10T15:42:08.513Z,79.39
2017-08-10T15:44:34.377Z,79.40
2017-08-10T15:47:00.184Z,80.03
2017-08-10T15:49:25.932Z,79.05
2017-08-10T15:51:51.792Z,80.71
2017-08-10T15:54:17.569Z,80.45
2017-08-10T15:56:43.380Z,81.68
2017-08-10T15:59:09.236Z,81.29
2017-08-10T16:01:35.084Z,82.62
2017-08-10T16:04:00.919Z,82.41
2017-08-10T16:06:26.737Z,83.18
2017-08-10T16:08:52.504Z,84.32
2017-08-10T16:11:18.303Z,84.80
2017-08-10T16:13:44.117Z,85.21
2017-08-10T16:16:09.988Z,83.40
2017-08-10T16:18:35.757Z,84.08
2017-08-10T16:21:01.575Z,85.56
2017-08-10T16:23:27.554Z,84.09
2017-08-10T16:25:53.304Z,86.28
2017-08-10T16:28:19.042Z,84.91
2017-08-10T16:30:44.878Z,85.25
2017-08-10T16:33:10.705Z,85.18
2017-08-10T16:35:36.584Z,85.52
2017-08-10T16:38:02.333Z,86.41
2017-08-10T16:40:28.126Z,84.93
2017-08-10T16:42:53.956Z,85.36
2017-08-10T16:45:19.787Z,85.82
2017-08-10T16:47:45.577Z,85.36
2017-08-10T16:50:11.409Z,85.38
2017-08-10T16:52:37.316Z,86.12
2017-08-10T16:55:03.051Z,85.32
2017-08-10T16:57:28.882Z,84.87
2017-08-10T16:59:54.736Z,84.81
2017-08-10T17:02:20.481Z,84.56
2017-08-10T17:04:46.329Z,86.13
2017-08-10T17:07:12.133Z,84.62
2017-08-10T17:09:38.033Z,84.58
2017-08-10T17:12:03.769Z,85.02
2017-08-10T17:14:29.533Z,85.59
2017-08-10T17:16:55.292Z,86.02
2017-08-10T17:19:21.076Z,85.69
2017-08-10T17:21:46.889Z,86.42
2017-08-10T17:24:12.744Z,85.96
2017-08-10T17:26:38.484Z,86.76
2017-08-10T17:29:04.306Z,87.39
2017-08-10T17:31:30.124Z,86.70
2017-08-10T17:33:55.988Z,86.22
2017-08-10T17:36:21.776Z,86.26
2017-08-10T17:38:47.547Z,86.63
2017-08-10T17:41:13.384Z,86.72
2017-08-10T17:43:39.284Z,86.61
2017-08-10T17:46:05.012Z,86.64
2017-08-10T17:48:30.920Z,87.23
2017-08-10T17:50:56.721Z,85.62
2017-08-10T17:53:22.536Z,86.51
2017-08-10T17:55:48.308Z,86.20
2017-08-10T17:58:14.189Z,86.46
2017-08-10T18:00:39.956Z,85.90
2017-08-10T18:03:05.765Z,86.33
2017-08-10T18:05:31.758Z,86.19
2017-08-10T18:07:57.592Z,85.95
2017-08-10T18:10:23.423Z,86.20
2017-08-10T18:12:49.300Z,86.37
2017-08-10T18:15:15.085Z,86.82
2017-08-10T18:17:40.781Z,86.47
2017-08-10T18:20:06.493Z,86.85
2017-08-10T18:22:32.376Z,86.51
2017-08-10T18:24:58.108Z,86.24
2017-08-10T18:27:23.972Z,86.83
2017-08-10T18:29:49.748Z,86.94
2017-08-10T18:32:15.643Z,87.35
2017-08-10T18:34:41.420Z,86.67
2017-08-10T18:37:07.200Z,87.04
2017-08-10T18:39:33.012Z,88.29
2017-08-10T18:41:58.863Z,87.46
2017-08-10T18:44:24.758Z,87.10
2017-08-10T18:46:52.050Z,86.48
2017-08-10T18:49:18.000Z,85.94
2017-08-10T18:51:43.759Z,86.24
2017-08-10T18:54:09.605Z,86.44
2017-08-10T18:56:35.387Z,87.07
2017-08-10T18:59:01.228Z,87.30
2017-08-10T19:01:26.980Z,86.97
2017-08-10T19:03:52.696Z,87.71
2017-08-10T19:06:18.489Z,88.26
2017-08-10T19:08:44.349Z,87.94
2017-08-10T19:11:10.112Z,87.94
2017-08-10T19:13:35.944Z,88.25
2017-08-10T19:16:01.806Z,88.20
2017-08-10T19:18:27.643Z,88.36
2017-08-10T19:20:53.415Z,88.89
2017-08-10T19:23:19.249Z,88.70
2017-08-10T19:25:45.099Z,90.09
2017-08-10T19:28:10.870Z,89.98
2017-08-10T19:30:36.695Z,90.13
2017-08-10T19:33:02.530Z,87.40
2017-08-10T19:35:28.304Z,87.46
2017-08-10T19:37:54.124Z,87.30
2017-08-10T19:40:19.974Z,87.18
2017-08-10T19:42:45.760Z,88.79
2017-08-10T19:45:11.660Z,88.22
2017-08-10T19:47:37.456Z,89.20
2017-08-10T19:50:03.220Z,89.28
2017-08-10T19:52:29.059Z,90.33
2017-08-10T19:54:54.955Z,89.34
2017-08-10T19:57:20.716Z,90.58
2017-08-10T19:59:46.610Z,90.85
2017-08-10T20:02:12.357Z,90.56
2017-08-10T20:04:38.130Z,91.99
2017-08-10T20:07:03.986Z,90.57
2017-08-10T20:09:30.587Z,90.57
2017-08-10T20:11:56.430Z,90.46
2017-08-10T20:14:22.226Z,91.91
2017-08-10T20:16:48.046Z,91.03
2017-08-10T20:19:13.874Z,90.10
2017-08-10T20:21:40.515Z,90.06
2017-08-10T20:24:06.354Z,90.71
2017-08-10T20:26:32.134Z,90.85
2017-08-10T20:28:58.027Z,91.19
2017-08-10T20:31:23.817Z,91.93
2017-08-10T20:33:49.620Z,91.49
2017-08-10T20:36:15.490Z,90.84
2017-08-10T20:38:41.270Z,90.08
2017-08-10T20:41:07.041Z,91.17
2017-08-10T20:43:32.860Z,90.95
2017-08-10T20:45:58.722Z,90.95
2017-08-10T20:48:24.519Z,91.13
2017-08-10T20:50:50.379Z,90.85
2017-08-10T20:53:16.253Z,92.22
2017-08-10T20:55:41.985Z,92.73
2017-08-10T20:58:07.795Z,91.35
2017-08-10T21:00:33.635Z,91.13
2017-08-10T21:02:59.487Z,92.37
2017-08-10T21:05:25.248Z,92.05
2017-08-10T21:07:51.075Z,92.11
2017-08-10T21:10:16.854Z,91.40
2017-08-10T21:12:42.703Z,89.76
2017-08-10T21:15:08.580Z,90.50
2017-08-10T21:17:34.361Z,90.29
2017-08-10T21:20:00.181Z,90.71
2017-08-10T21:22:25.980Z,91.93
2017-08-10T21:24:51.807Z,92.40
2017-08-10T21:27:17.639Z,91.82
2017-08-10T21:29:43.435Z,91.81
2017-08-10T21:32:09.220Z,92.07
2017-08-10T21:34:35.062Z,91.77
2017-08-10T21:37:00.862Z,91.88
2017-08-10T21:39:26.790Z,91.67
2017-08-10T21:41:52.524Z,91.87
2017-08-10T21:44:18.315Z,91.67
2017-08-10T21:46:44.170Z,91.71
2017-08-10T21:49:09.978Z,92.19
2017-08-10T21:51:35.821Z,91.32
2017-08-10T21:54:01.597Z,91.11
2017-08-10T21:56:27.434Z,91.08
2017-08-10T21:58:53.307Z,90.79
2017-08-10T22:01:20.075Z,92.58
2017-08-10T22:03:45.898Z,91.66
2017-08-10T22:06:11.734Z,91.77
2017-08-10T22:08:37.575Z,91.11
2017-08-10T22:11:03.426Z,91.82
2017-08-10T22:13:29.156Z,91.48
2017-08-10T22:15:55.031Z,91.58
2017-08-10T22:18:20.807Z,91.83
2017-08-10T22:20:46.657Z,92.05
2017-08-10T22:23:12.475Z,91.70
2017-08-10T22:25:38.259Z,91.96
2017-08-10T22:28:04.110Z,92.15
2017-08-10T22:30:29.960Z,92.35
2017-08-10T22:32:55.721Z,92.05
2017-08-10T22:35:21.643Z,92.01
2017-08-10T22:37:47.400Z,92.18
2017-08-10T22:40:13.215Z,92.13
2017-08-10T22:42:39.045Z,92.28
2017-08-10T22:45:04.807Z,92.46
2017-08-10T22:47:30.648Z,92.87
2017-08-10T22:49:56.451Z,92.36
2017-08-10T22:52:22.319Z,92.58
2017-08-10T22:54:48.109Z,92.91
2017-08-10T22:57:13.893Z,93.19
2017-08-10T22:59:39.719Z,92.86
2017-08-10T23:02:05.566Z,93.02
2017-08-10T23:04:31.355Z,92.50
2017-08-10T23:06:57.234Z,91.59
2017-08-10T23:09:23.015Z,91.61
2017-08-10T23:11:48.927Z,92.08
2017-08-10T23:14:14.690Z,91.53
2017-08-10T23:16:40.454Z,91.17
2017-08-10T23:19:06.266Z,91.33
2017-08-10T23:21:32.119Z,91.71
2017-08-10T23:23:57.970Z,92.05
2017-08-10T23:26:23.712Z,92.37
2017-08-10T23:28:49.451Z,92.15
2017-08-10T23:31:15.193Z,91.90
2017-08-10T23:33:41.003Z,92.49
2017-08-10T23:36:06.794Z,92.28
2017-08-10T23:38:32.603Z,92.43
2017-08-10T23:40:58.456Z,92.24
2017-08-10T23:43:24.234Z,92.04
2017-08-10T23:45:50.176Z,92.06
2017-08-10T23:48:15.976Z,91.62
2017-08-10T23:50:41.719Z,91.93
2017-08-10T23:53:07.511Z,92.09
2017-08-10T23:55:33.344Z,92.42
2017-08-10T23:57:59.177Z,91.65
